Time;durP1;ratioP1;P1;durP2;ratioP2;P2;SDS_P1;SDS_P2;PMS_P1;PMS_P2;Temp;Humidity;BMP_temperature;BMP_pressure;BME280_temperature;BME280_humidity;BME280_pressure;Samples;Min_cycle;Max_cycle;Signal;HPM_P1;HPM_P2
2021/09/23 00:00:08;;;;;;;16.50;12.00;;;13.70;99.90;;;;;;5057401;28;20467;-72
2021/09/23 00:02:48;;;;;;;16.10;12.33;;;13.70;99.90;;;;;;5057755;28;20480;-72
2021/09/23 00:05:17;;;;;;;21.53;12.90;;;13.70;99.90;;;;;;5056600;28;20534;-72
2021/09/23 00:07:45;;;;;;;14.87;11.83;;;13.70;99.90;;;;;;5059286;28;20455;-72
2021/09/23 00:10:15;;;;;;;15.00;12.00;;;13.70;99.90;;;;;;5057927;28;20459;-72
2021/09/23 00:12:44;;;;;;;17.40;11.80;;;13.60;99.90;;;;;;5057615;28;20792;-72
2021/09/23 00:15:14;;;;;;;15.97;12.20;;;13.60;99.90;;;;;;5057326;28;20513;-72
2021/09/23 00:17:47;;;;;;;15.27;12.53;;;13.60;99.90;;;;;;5057661;28;20426;-72
2021/09/23 00:20:15;;;;;;;16.60;11.87;;;13.60;99.90;;;;;;5056820;28;20446;-72
2021/09/23 00:22:42;;;;;;;15.93;12.40;;;13.60;99.90;;;;;;5056605;28;20881;-72
2021/09/23 00:25:10;;;;;;;17.93;13.33;;;13.60;99.90;;;;;;5056865;28;20463;-72
2021/09/23 00:27:40;;;;;;;16.47;13.17;;;13.60;99.90;;;;;;5056958;28;20519;-72
2021/09/23 00:30:10;;;;;;;16.67;13.57;;;13.60;99.90;;;;;;5056223;28;20799;-72
2021/09/23 00:32:40;;;;;;;21.53;14.60;;;13.50;99.90;;;;;;5056371;28;20442;-72
2021/09/23 00:35:08;;;;;;;26.10;15.67;;;13.50;99.90;;;;;;5056169;28;20457;-71
2021/09/23 00:37:35;;;;;;;19.03;15.40;;;13.50;99.90;;;;;;5056336;28;20519;-72
2021/09/23 00:40:03;;;;;;;18.47;14.70;;;13.50;99.90;;;;;;5056486;28;20594;-71
2021/09/23 00:42:30;;;;;;;25.60;15.93;;;13.50;99.90;;;;;;5056771;28;20553;-72
2021/09/23 00:44:58;;;;;;;20.30;16.40;;;13.50;99.90;;;;;;5056423;28;20479;-72
2021/09/23 00:47:27;;;;;;;23.70;16.27;;;13.50;99.90;;;;;;5056293;28;20463;-72
2021/09/23 00:49:55;;;;;;;26.20;17.43;;;13.50;99.90;;;;;;5056418;28;20455;-71
2021/09/23 00:52:25;;;;;;;22.00;15.83;;;13.50;99.90;;;;;;5056279;28;20517;-72
2021/09/23 00:54:52;;;;;;;23.70;16.20;;;13.50;99.90;;;;;;5056292;28;20542;-72
2021/09/23 00:57:19;;;;;;;22.40;15.97;;;13.50;99.90;;;;;;5056252;28;20762;-72
2021/09/23 00:59:46;;;;;;;21.30;16.13;;;13.50;99.90;;;;;;5056139;28;20475;-72
2021/09/23 01:02:13;;;;;;;21.60;17.43;;;13.50;99.90;;;;;;5056110;28;20487;-72
2021/09/23 01:04:44;;;;;;;25.50;17.10;;;13.50;99.90;;;;;;5055703;28;20455;-72
2021/09/23 01:07:11;;;;;;;22.37;17.43;;;13.50;99.90;;;;;;5056126;28;20442;-72
2021/09/23 01:09:39;;;;;;;32.17;17.50;;;13.50;99.90;;;;;;5055950;28;20466;-72
2021/09/23 01:12:06;;;;;;;24.00;18.17;;;13.50;99.90;;;;;;5056234;28;20462;-72
2021/09/23 01:14:32;;;;;;;27.33;18.10;;;13.50;99.90;;;;;;5055950;28;20765;-72
2021/09/23 01:17:03;;;;;;;24.50;19.10;;;13.50;99.90;;;;;;5056017;28;20455;-72
2021/09/23 01:19:30;;;;;;;26.57;18.83;;;13.50;99.90;;;;;;5056131;28;20895;-72
2021/09/23 01:21:58;;;;;;;35.70;20.53;;;13.60;99.90;;;;;;5059476;28;20482;-72
2021/09/23 01:24:26;;;;;;;22.80;18.73;;;13.60;99.90;;;;;;5061060;28;20451;-72
2021/09/23 01:26:55;;;;;;;27.10;20.43;;;13.60;99.90;;;;;;5062115;28;20491;-72
2021/09/23 01:29:22;;;;;;;27.50;19.80;;;13.60;99.90;;;;;;5061061;28;20462;-72
2021/09/23 01:31:50;;;;;;;23.67;19.20;;;13.60;99.90;;;;;;5059717;28;20449;-71
2021/09/23 01:34:17;;;;;;;25.03;19.60;;;13.60;99.90;;;;;;5060121;28;20556;-71
2021/09/23 01:36:44;;;;;;;28.93;21.50;;;13.60;99.90;;;;;;5059375;28;20451;-71
2021/09/23 01:39:17;;;;;;;30.50;21.30;;;13.60;99.90;;;;;;5059598;28;20473;-71
2021/09/23 01:41:44;;;;;;;25.30;20.37;;;13.60;99.90;;;;;;5060853;28;20449;-72
2021/09/23 01:44:10;;;;;;;24.43;20.90;;;13.60;99.90;;;;;;5059019;28;20455;-72
2021/09/23 01:46:37;;;;;;;29.90;21.47;;;13.50;99.90;;;;;;5056120;28;20483;-72
2021/09/23 01:49:04;;;;;;;26.03;20.57;;;13.50;99.90;;;;;;5055487;28;20461;-70
2021/09/23 01:51:32;;;;;;;29.63;20.93;;;13.50;99.90;;;;;;5055209;28;20473;-72
2021/09/23 01:53:59;;;;;;;30.27;21.40;;;13.50;99.90;;;;;;5055142;28;20476;-71
2021/09/23 01:56:27;;;;;;;29.20;19.33;;;13.50;99.90;;;;;;5055293;28;20462;-71
2021/09/23 01:58:54;;;;;;;27.43;20.90;;;13.50;99.90;;;;;;5055172;28;20466;-71
2021/09/23 02:01:21;;;;;;;26.47;20.20;;;13.50;99.90;;;;;;5055168;28;20463;-72
2021/09/23 02:03:48;;;;;;;33.67;22.40;;;13.50;99.90;;;;;;5055056;28;20487;-70
2021/09/23 02:06:15;;;;;;;28.90;20.77;;;13.50;99.90;;;;;;5054991;28;20827;-70
2021/09/23 02:08:41;;;;;;;26.33;19.63;;;13.50;99.90;;;;;;5055071;28;20474;-70
2021/09/23 02:11:08;;;;;;;32.10;21.40;;;13.40;99.90;;;;;;5054689;28;20471;-70
2021/09/23 02:13:37;;;;;;;31.33;20.30;;;13.40;99.90;;;;;;5054712;28;20466;-70
2021/09/23 02:16:04;;;;;;;28.60;20.20;;;13.40;99.90;;;;;;5054257;28;20506;-71
2021/09/23 02:18:30;;;;;;;32.10;22.00;;;13.40;99.90;;;;;;5054916;28;20452;-71
2021/09/23 02:20:57;;;;;;;30.60;22.80;;;13.40;99.90;;;;;;5054265;28;20517;-70
2021/09/23 02:23:24;;;;;;;25.70;20.63;;;13.30;99.90;;;;;;5054702;28;20493;-71
2021/09/23 02:25:51;;;;;;;35.10;21.30;;;13.30;99.90;;;;;;5054319;28;20946;-71
2021/09/23 02:28:17;;;;;;;32.90;22.83;;;13.30;99.90;;;;;;5054842;28;20568;-71
2021/09/23 02:30:45;;;;;;;32.33;23.40;;;13.30;99.90;;;;;;5054721;28;20484;-71
2021/09/23 02:33:14;;;;;;;34.63;23.60;;;13.30;99.90;;;;;;5054519;28;20455;-71
2021/09/23 02:35:40;;;;;;;31.93;23.37;;;13.20;99.90;;;;;;5054314;28;20822;-71
2021/09/23 02:38:07;;;;;;;30.00;23.07;;;13.20;99.90;;;;;;5054212;28;20935;-71
2021/09/23 02:40:34;;;;;;;32.47;22.00;;;13.20;99.90;;;;;;5054497;28;20471;-71
2021/09/23 02:43:01;;;;;;;29.03;22.93;;;13.20;99.90;;;;;;5054293;28;20488;-71
2021/09/23 02:45:28;;;;;;;37.43;23.80;;;13.10;99.90;;;;;;5054481;28;20936;-71
2021/09/23 02:47:56;;;;;;;30.47;22.70;;;13.10;99.90;;;;;;5054259;28;20931;-71
2021/09/23 02:50:24;;;;;;;31.50;22.40;;;13.10;99.90;;;;;;5054409;28;20464;-71
2021/09/23 02:52:50;;;;;;;27.83;22.50;;;13.10;99.90;;;;;;5054300;28;20457;-71
2021/09/23 02:55:17;;;;;;;36.03;22.57;;;13.10;99.90;;;;;;5054502;28;20469;-71
2021/09/23 02:57:44;;;;;;;32.03;21.50;;;13.10;99.90;;;;;;5057694;28;20521;-71
2021/09/23 03:00:11;;;;;;;35.00;22.70;;;13.10;99.90;;;;;;5055361;28;20734;-71
2021/09/23 03:02:38;;;;;;;31.03;22.23;;;13.00;99.90;;;;;;5053974;28;20960;-71
2021/09/23 03:05:07;;;;;;;31.40;22.27;;;13.00;99.90;;;;;;5054307;28;20829;-71
2021/09/23 03:07:33;;;;;;;31.80;22.60;;;13.00;99.90;;;;;;5054168;28;20451;-71
2021/09/23 03:10:01;;;;;;;30.33;23.10;;;13.00;99.90;;;;;;5054118;28;20915;-71
2021/09/23 03:12:28;;;;;;;30.23;24.03;;;13.00;99.90;;;;;;5054132;28;20462;-71
2021/09/23 03:14:55;;;;;;;32.57;25.13;;;13.00;99.90;;;;;;5054111;28;20487;-71
2021/09/23 03:17:21;;;;;;;33.60;24.00;;;13.00;99.90;;;;;;5054226;28;20784;-71
2021/09/23 03:19:48;;;;;;;33.57;25.63;;;13.00;99.90;;;;;;5054404;28;20463;-71
2021/09/23 03:22:17;;;;;;;35.43;24.40;;;13.00;99.90;;;;;;5054045;28;20460;-71
2021/09/23 03:24:44;;;;;;;41.67;26.07;;;12.90;99.90;;;;;;5054269;28;20463;-71
2021/09/23 03:27:11;;;;;;;42.13;26.37;;;12.90;99.90;;;;;;5058049;28;20459;-71
2021/09/23 03:29:37;;;;;;;39.03;26.83;;;12.90;99.90;;;;;;5057693;28;20457;-71
2021/09/23 03:32:05;;;;;;;38.30;27.37;;;12.90;99.90;;;;;;5057657;28;20528;-71
2021/09/23 03:34:31;;;;;;;38.40;26.73;;;12.90;99.90;;;;;;5057432;28;20920;-71
2021/09/23 03:36:58;;;;;;;39.47;27.67;;;12.90;99.90;;;;;;5057535;28;20463;-71
2021/09/23 03:39:26;;;;;;;38.23;26.20;;;12.90;99.90;;;;;;5057559;28;20756;-70
2021/09/23 03:41:53;;;;;;;37.83;27.50;;;12.90;99.90;;;;;;5057365;28;20461;-71
2021/09/23 03:44:20;;;;;;;41.20;27.93;;;12.90;99.90;;;;;;5057317;28;20491;-70
2021/09/23 03:46:47;;;;;;;38.37;27.60;;;12.90;99.90;;;;;;5057611;28;20472;-71
2021/09/23 03:49:14;;;;;;;38.57;27.57;;;12.90;99.90;;;;;;5057506;28;20456;-71
2021/09/23 03:51:41;;;;;;;40.17;27.50;;;12.90;99.90;;;;;;5057340;28;20502;-71
2021/09/23 03:54:08;;;;;;;39.23;28.20;;;12.80;99.90;;;;;;5057169;28;20910;-70
2021/09/23 03:56:36;;;;;;;43.10;28.77;;;12.80;99.90;;;;;;5057566;28;20468;-70
2021/09/23 03:59:02;;;;;;;41.03;26.67;;;12.80;99.90;;;;;;5057039;28;20830;-71
2021/09/23 04:01:29;;;;;;;39.30;27.77;;;12.80;99.90;;;;;;5057292;28;20455;-71
2021/09/23 04:03:56;;;;;;;39.80;27.00;;;12.80;99.90;;;;;;5056726;28;20485;-71
2021/09/23 04:06:22;;;;;;;38.60;26.90;;;12.80;99.90;;;;;;5057166;28;20517;-71
2021/09/23 04:08:50;;;;;;;39.93;25.67;;;12.80;99.90;;;;;;5056470;28;20900;-71
2021/09/23 04:11:16;;;;;;;40.70;26.03;;;12.80;99.90;;;;;;5057089;28;20484;-71
2021/09/23 04:13:44;;;;;;;37.43;26.90;;;12.80;99.90;;;;;;5056648;28;20834;-70
2021/09/23 04:16:11;;;;;;;40.70;24.23;;;12.70;99.90;;;;;;5056665;28;20484;-70
2021/09/23 04:18:38;;;;;;;35.30;24.70;;;12.70;99.90;;;;;;5057100;28;20472;-71
2021/09/23 04:21:05;;;;;;;38.80;24.80;;;12.70;99.90;;;;;;5056380;28;20564;-71
2021/09/23 04:23:31;;;;;;;32.90;24.73;;;12.70;99.90;;;;;;5056801;28;20498;-71
2021/09/23 04:26:00;;;;;;;32.23;24.20;;;12.70;99.90;;;;;;5056750;28;20220;-71
2021/09/23 04:28:26;;;;;;;35.57;25.97;;;12.80;99.90;;;;;;5056713;28;20460;-71
2021/09/23 04:30:54;;;;;;;35.70;24.77;;;12.80;99.90;;;;;;5056293;28;20940;-71
2021/09/23 04:33:21;;;;;;;35.80;24.30;;;12.80;99.90;;;;;;5056860;28;20471;-71
2021/09/23 04:35:49;;;;;;;31.90;23.07;;;12.80;99.90;;;;;;5056112;28;20460;-71
2021/09/23 04:38:18;;;;;;;34.60;24.10;;;12.80;99.90;;;;;;5056473;28;20457;-71
2021/09/23 04:40:45;;;;;;;31.53;23.83;;;12.80;99.90;;;;;;5056843;28;20542;-72
2021/09/23 04:43:12;;;;;;;33.87;23.30;;;12.70;99.90;;;;;;5056609;28;20480;-72
2021/09/23 04:45:39;;;;;;;36.73;23.70;;;12.70;99.90;;;;;;5056158;28;20475;-72
2021/09/23 04:48:07;;;;;;;30.67;23.00;;;12.70;99.90;;;;;;5056416;28;20469;-72
2021/09/23 04:50:33;;;;;;;33.03;24.00;;;12.60;99.90;;;;;;5056461;28;20775;-72
2021/09/23 04:53:00;;;;;;;30.57;22.20;;;12.60;99.90;;;;;;5055952;28;20463;-72
2021/09/23 04:55:27;;;;;;;32.63;24.00;;;12.50;99.90;;;;;;5055637;28;20531;-72
2021/09/23 04:57:54;;;;;;;36.13;24.70;;;12.50;99.90;;;;;;5056315;28;20458;-72
2021/09/23 05:00:21;;;;;;;36.60;24.87;;;12.50;99.90;;;;;;5056241;28;20468;-72
2021/09/23 05:02:48;;;;;;;34.20;24.40;;;12.40;99.90;;;;;;5055850;28;20487;-72
2021/09/23 05:05:18;;;;;;;33.53;25.43;;;12.40;99.90;;;;;;5056139;28;20574;-71
2021/09/23 05:07:45;;;;;;;36.03;27.10;;;12.40;99.90;;;;;;5056284;28;20463;-72
2021/09/23 05:10:11;;;;;;;34.67;24.77;;;12.40;99.90;;;;;;5057601;28;20475;-72
2021/09/23 05:12:38;;;;;;;34.43;25.30;;;12.40;99.90;;;;;;5058062;28;20467;-71
2021/09/23 05:15:06;;;;;;;32.63;24.00;;;12.40;99.90;;;;;;5056593;28;20479;-71
2021/09/23 05:17:33;;;;;;;33.53;24.47;;;12.30;99.90;;;;;;5055742;28;20712;-71
2021/09/23 05:20:00;;;;;;;35.87;25.50;;;12.40;99.90;;;;;;5055575;28;20766;-71
2021/09/23 05:22:28;;;;;;;34.90;25.80;;;12.40;99.90;;;;;;5056030;28;20467;-71
2021/09/23 05:24:55;;;;;;;34.70;25.60;;;12.40;99.90;;;;;;5055644;28;20740;-71
2021/09/23 05:27:21;;;;;;;36.30;24.80;;;12.50;99.90;;;;;;5055396;28;20678;-70
2021/09/23 05:29:48;;;;;;;34.27;25.30;;;12.50;99.90;;;;;;5055361;28;20472;-70
2021/09/23 05:32:16;;;;;;;39.13;26.33;;;12.50;99.90;;;;;;5055601;28;20466;-71
2021/09/23 05:34:42;;;;;;;34.83;25.90;;;12.50;99.90;;;;;;5055270;28;20457;-71
2021/09/23 05:37:09;;;;;;;35.00;25.27;;;12.60;99.90;;;;;;5055210;28;20897;-71
2021/09/23 05:39:37;;;;;;;35.80;26.13;;;12.60;99.90;;;;;;5055408;28;20477;-71
2021/09/23 05:42:05;;;;;;;36.90;24.30;;;12.60;99.90;;;;;;5054982;28;20478;-71
2021/09/23 05:44:31;;;;;;;40.63;25.23;;;12.60;99.90;;;;;;5055548;28;20810;-71
2021/09/23 05:46:58;;;;;;;41.80;27.70;;;12.60;99.90;;;;;;5055801;28;20468;-71
2021/09/23 05:49:25;;;;;;;40.80;26.30;;;12.60;99.90;;;;;;5055156;28;20455;-71
2021/09/23 05:51:52;;;;;;;39.30;25.90;;;12.70;99.90;;;;;;5055472;28;20471;-71
2021/09/23 05:54:19;;;;;;;34.50;25.87;;;12.70;99.90;;;;;;5055803;28;20835;-71
2021/09/23 05:56:47;;;;;;;36.10;25.83;;;12.70;99.90;;;;;;5055584;28;20456;-71
2021/09/23 05:59:14;;;;;;;37.10;26.07;;;12.80;99.90;;;;;;5055310;28;20462;-71
2021/09/23 06:01:40;;;;;;;38.53;26.50;;;12.80;99.90;;;;;;5055303;28;20478;-71
2021/09/23 06:04:07;;;;;;;36.67;24.67;;;12.90;99.90;;;;;;5054928;28;20479;-71
2021/09/23 06:06:34;;;;;;;37.00;25.37;;;12.90;99.90;;;;;;5054876;28;20459;-72
2021/09/23 06:09:01;;;;;;;33.30;25.10;;;12.90;99.90;;;;;;5054813;28;20455;-72
2021/09/23 06:11:27;;;;;;;33.87;24.03;;;13.00;99.90;;;;;;5054438;28;20931;-72
2021/09/23 06:13:56;;;;;;;32.97;24.77;;;13.00;99.90;;;;;;5054492;28;20463;-71
2021/09/23 06:16:22;;;;;;;36.43;27.27;;;13.00;99.90;;;;;;5054246;28;20492;-72
2021/09/23 06:18:49;;;;;;;38.40;24.70;;;13.10;99.90;;;;;;5054486;28;20490;-71
2021/09/23 06:21:16;;;;;;;38.87;26.07;;;13.10;99.90;;;;;;5054740;28;20528;-71
2021/09/23 06:23:42;;;;;;;33.70;25.37;;;13.10;99.90;;;;;;5054671;28;20484;-72
2021/09/23 06:26:09;;;;;;;33.60;24.30;;;13.10;99.90;;;;;;5054824;28;20838;-71
2021/09/23 06:28:37;;;;;;;38.63;25.63;;;13.10;99.90;;;;;;5054853;28;20857;-71
2021/09/23 06:31:05;;;;;;;34.93;25.13;;;13.10;99.90;;;;;;5054092;28;20517;-71
2021/09/23 06:33:32;;;;;;;36.97;25.07;;;13.10;99.90;;;;;;5054508;28;20937;-71
2021/09/23 06:35:59;;;;;;;37.73;25.67;;;13.20;99.90;;;;;;5053796;28;20492;-71
2021/09/23 06:38:26;;;;;;;44.10;25.80;;;13.20;99.90;;;;;;5054402;28;20458;-72
2021/09/23 06:40:55;;;;;;;36.97;25.80;;;13.30;99.90;;;;;;5054363;28;20923;-72
2021/09/23 06:43:22;;;;;;;35.13;25.40;;;13.30;99.90;;;;;;5054257;28;20501;-70
2021/09/23 06:45:49;;;;;;;37.00;26.07;;;13.40;99.90;;;;;;5054048;28;20920;-71
2021/09/23 06:48:17;;;;;;;37.87;26.50;;;13.50;99.90;;;;;;5055759;28;20462;-71
2021/09/23 06:50:44;;;;;;;38.53;26.77;;;13.50;99.90;;;;;;5055730;28;20467;-72
2021/09/23 06:53:11;;;;;;;38.87;27.47;;;13.60;99.90;;;;;;5054446;28;20466;-71
2021/09/23 06:55:37;;;;;;;38.77;25.83;;;13.60;99.90;;;;;;5054290;28;20485;-71
2021/09/23 06:58:04;;;;;;;34.00;24.60;;;13.60;99.90;;;;;;5054356;28;20794;-71
2021/09/23 07:00:31;;;;;;;36.67;26.20;;;13.60;99.90;;;;;;5057331;28;20458;-71
2021/09/23 07:02:57;;;;;;;38.33;24.30;;;13.70;99.90;;;;;;5058041;28;21053;-71
2021/09/23 07:05:25;;;;;;;38.90;26.60;;;13.70;99.90;;;;;;5057864;28;20522;-71
2021/09/23 07:07:52;;;;;;;37.27;26.20;;;13.70;99.90;;;;;;5058706;28;20463;-71
2021/09/23 07:10:20;;;;;;;35.70;25.93;;;13.80;99.90;;;;;;5058116;28;20455;-71
2021/09/23 07:12:47;;;;;;;38.90;26.53;;;13.80;99.90;;;;;;5058208;28;20493;-71
2021/09/23 07:15:13;;;;;;;37.50;26.97;;;13.90;99.90;;;;;;5057496;28;20486;-71
2021/09/23 07:17:40;;;;;;;36.00;24.80;;;13.90;99.90;;;;;;5057674;28;20473;-72
2021/09/23 07:20:08;;;;;;;33.70;26.13;;;14.00;99.90;;;;;;5057702;28;20484;-72
2021/09/23 07:22:36;;;;;;;36.27;25.20;;;14.00;99.90;;;;;;5057482;28;20558;-70
2021/09/23 07:25:04;;;;;;;38.33;26.70;;;14.20;99.90;;;;;;5057465;28;20491;-71
2021/09/23 07:27:30;;;;;;;36.23;26.13;;;14.30;99.90;;;;;;5057760;28;20792;-71
2021/09/23 07:29:57;;;;;;;32.93;24.80;;;14.40;99.90;;;;;;5057700;28;20462;-71
2021/09/23 07:32:24;;;;;;;42.43;26.00;;;14.50;99.90;;;;;;5058528;28;20467;-71
2021/09/23 07:34:51;;;;;;;36.20;24.90;;;14.70;99.90;;;;;;5057421;28;20447;-71
2021/09/23 07:37:17;;;;;;;39.53;26.73;;;14.80;99.90;;;;;;5057272;28;20452;-74
2021/09/23 07:39:46;;;;;;;39.73;24.90;;;14.80;99.90;;;;;;5057314;28;20535;-70
2021/09/23 07:42:15;;;;;;;35.30;23.70;;;14.90;99.90;;;;;;5057114;28;20765;-71
2021/09/23 07:44:42;;;;;;;33.37;24.50;;;14.90;99.90;;;;;;5057643;28;21018;-71
2021/09/23 07:47:09;;;;;;;38.77;23.90;;;15.00;99.90;;;;;;5057331;28;20459;-71
2021/09/23 07:49:36;;;;;;;31.93;22.80;;;15.10;99.90;;;;;;5056775;28;20912;-71
2021/09/23 07:52:03;;;;;;;35.30;23.90;;;15.20;99.90;;;;;;5056585;28;20923;-72
2021/09/23 07:54:29;;;;;;;39.07;26.60;;;15.20;99.90;;;;;;5057598;28;20470;-71
2021/09/23 07:56:57;;;;;;;36.13;23.90;;;15.40;99.90;;;;;;5057037;28;20544;-71
2021/09/23 07:59:24;;;;;;;31.97;21.60;;;15.60;99.90;;;;;;5057330;28;20462;-71
2021/09/23 08:01:51;;;;;;;42.70;23.40;;;15.70;1.00;;;;;;5057352;28;20775;-71
2021/09/23 08:04:17;;;;;;;29.57;20.90;;;15.80;1.00;;;;;;5056960;28;20549;-71
2021/09/23 08:06:44;;;;;;;35.63;24.03;;;15.90;1.00;;;;;;5057207;28;20456;-72
2021/09/23 08:09:11;;;;;;;29.53;21.63;;;16.00;25.70;;;;;;5057141;28;20556;-73
2021/09/23 08:11:40;;;;;;;34.57;21.70;;;16.10;1.00;;;;;;5055795;28;20474;-72
2021/09/23 08:14:08;;;;;;;31.80;20.90;;;16.20;1.00;;;;;;5057020;28;20491;-72
2021/09/23 08:16:35;;;;;;;31.70;21.80;;;16.30;99.90;;;;;;5056381;28;20495;-72
2021/09/23 08:19:02;;;;;;;32.73;21.73;;;16.40;1.00;;;;;;5057234;28;20459;-72
2021/09/23 08:21:29;;;;;;;27.17;19.60;;;16.50;99.90;;;;;;5056870;28;20468;-72
2021/09/23 08:23:55;;;;;;;32.67;20.23;;;16.50;99.90;;;;;;5056602;28;20487;-72
2021/09/23 08:26:23;;;;;;;26.40;19.87;;;16.50;99.90;;;;;;5057124;28;20911;-72
2021/09/23 08:28:50;;;;;;;30.20;19.30;;;16.60;1.00;;;;;;5058774;28;20459;-72
2021/09/23 08:31:19;;;;;;;33.83;21.10;;;16.60;99.90;;;;;;5056460;28;20459;-73
2021/09/23 08:33:46;;;;;;;24.70;17.70;;;16.70;1.00;;;;;;5057552;28;20924;-72
2021/09/23 08:36:13;;;;;;;25.87;18.20;;;16.70;99.90;;;;;;5055860;28;20456;-71
2021/09/23 08:38:39;;;;;;;26.17;17.00;;;16.70;1.00;;;;;;5058127;28;20466;-71
2021/09/23 08:41:06;;;;;;;27.63;18.03;;;16.80;99.90;;;;;;5057727;28;20471;-72
2021/09/23 08:43:34;;;;;;;24.40;18.07;;;16.70;1.00;;;;;;5056519;28;20463;-72
2021/09/23 08:46:02;;;;;;;29.97;19.27;;;16.80;1.00;;;;;;5055872;28;20541;-73
2021/09/23 08:48:31;;;;;;;27.10;18.90;;;16.80;1.00;;;;;;5056208;28;20868;-71
2021/09/23 08:50:58;;;;;;;28.23;18.67;;;16.90;1.00;;;;;;5055859;28;20799;-72
2021/09/23 08:53:26;;;;;;;27.70;17.93;;;16.90;1.00;;;;;;5055722;28;20455;-71
2021/09/23 08:55:53;;;;;;;22.50;15.83;;;16.90;1.00;;;;;;5055652;28;20467;-71
2021/09/23 08:58:20;;;;;;;25.20;17.80;;;16.90;1.00;;;;;;5055738;28;20470;-71
2021/09/23 09:01:03;;;;;;;25.07;18.40;;;16.80;1.00;;;;;;5055852;28;20487;-71
2021/09/23 09:03:33;;;;;;;23.10;17.10;;;16.80;1.00;;;;;;5056394;28;20439;-71
2021/09/23 09:06:04;;;;;;;23.60;17.70;;;16.70;1.00;;;;;;5055830;28;20869;-70
2021/09/23 09:08:33;;;;;;;21.30;16.67;;;16.80;1.00;;;;;;5055457;28;20488;-72
2021/09/23 09:11:02;;;;;;;22.97;16.53;;;16.90;1.00;;;;;;5056046;28;20787;-72
2021/09/23 09:13:33;;;;;;;29.83;17.13;;;17.10;1.00;;;;;;5055873;28;20529;-71
2021/09/23 09:16:07;;;;;;;22.03;14.83;;;17.10;99.90;;;;;;5055017;28;20607;-71
2021/09/23 09:18:36;;;;;;;23.47;15.77;;;17.10;99.90;;;;;;5055816;28;20776;-72
2021/09/23 09:21:07;;;;;;;20.33;16.90;;;17.20;99.90;;;;;;5055817;28;20459;-72
2021/09/23 09:23:41;;;;;;;20.10;14.83;;;17.30;99.90;;;;;;5055673;28;20440;-73
2021/09/23 09:26:09;;;;;;;25.73;15.77;;;17.40;99.90;;;;;;5055508;28;20841;-72
2021/09/23 09:28:47;;;;;;;21.03;15.20;;;17.40;99.90;;;;;;5055485;28;20460;-72
2021/09/23 09:31:14;;;;;;;22.70;15.37;;;17.40;29.20;;;;;;5055689;28;20505;-72
2021/09/23 09:33:44;;;;;;;22.50;15.80;;;17.40;81.80;;;;;;5055143;28;20467;-73
2021/09/23 09:36:31;;;;;;;20.77;14.80;;;17.50;1.00;;;;;;5055315;28;20447;-74
2021/09/23 09:39:00;;;;;;;24.73;13.70;;;17.50;1.00;;;;;;5055149;28;20432;-72
2021/09/23 09:41:30;;;;;;;18.40;13.43;;;17.60;1.00;;;;;;5055006;28;20464;-72
2021/09/23 09:43:59;;;;;;;27.47;14.70;;;17.60;1.00;;;;;;5054705;28;21053;-72
2021/09/23 09:46:28;;;;;;;18.63;13.80;;;17.70;1.00;;;;;;5055972;28;20467;-72
2021/09/23 09:48:57;;;;;;;23.27;14.43;;;17.80;1.00;;;;;;5054875;28;20458;-72
2021/09/23 09:51:34;;;;;;;15.80;12.80;;;17.90;1.00;;;;;;5055108;28;20924;-71
2021/09/23 09:54:01;;;;;;;16.93;12.30;;;18.00;1.00;;;;;;5055000;28;20451;-73
2021/09/23 09:56:28;;;;;;;20.10;14.53;;;18.00;99.90;;;;;;5054390;28;20459;-72
2021/09/23 09:59:06;;;;;;;17.47;12.67;;;18.10;99.90;;;;;;5055009;28;20459;-70
2021/09/23 10:01:32;;;;;;;17.17;12.97;;;18.10;99.90;;;;;;5054458;28;20470;-69
2021/09/23 10:04:01;;;;;;;16.00;11.87;;;18.20;99.90;;;;;;5054732;28;20460;-70
2021/09/23 10:06:28;;;;;;;19.53;14.00;;;18.30;99.90;;;;;;5054515;28;20515;-71
2021/09/23 10:08:55;;;;;;;16.50;12.40;;;18.40;99.90;;;;;;5054738;28;20778;-72
2021/09/23 10:11:23;;;;;;;23.20;13.60;;;18.60;19.10;;;;;;5054712;28;20562;-70
2021/09/23 10:13:50;;;;;;;20.80;12.93;;;18.70;1.00;;;;;;5054585;28;20509;-72
2021/09/23 10:16:17;;;;;;;16.43;13.10;;;18.90;1.00;;;;;;5054392;28;20487;-72
2021/09/23 10:18:44;;;;;;;15.80;12.40;;;18.90;1.00;;;;;;5054683;28;20462;-72
2021/09/23 10:21:12;;;;;;;20.90;14.77;;;19.00;1.00;;;;;;5054398;28;20513;-72
2021/09/23 10:23:40;;;;;;;16.33;12.50;;;19.10;1.00;;;;;;5054695;28;20809;-73
2021/09/23 10:26:11;;;;;;;19.83;12.30;;;19.00;1.00;;;;;;5054249;28;20488;-73
2021/09/23 10:28:39;;;;;;;21.27;12.70;;;19.00;1.00;;;;;;5054705;28;20444;-72
2021/09/23 10:31:09;;;;;;;22.43;13.57;;;19.00;1.00;;;;;;5054833;28;20468;-76
2021/09/23 10:33:36;;;;;;;19.23;12.80;;;18.70;1.00;;;;;;5054175;28;20456;-73
2021/09/23 10:36:03;;;;;;;19.80;11.70;;;18.60;1.00;;;;;;5054511;28;20470;-73
2021/09/23 10:38:32;;;;;;;13.30;11.53;;;18.60;1.00;;;;;;5054745;28;20455;-74
2021/09/23 10:40:59;;;;;;;18.40;11.90;;;18.60;1.00;;;;;;5054653;28;20464;-74
2021/09/23 10:43:29;;;;;;;15.60;11.47;;;18.60;1.00;;;;;;5054833;28;20492;-73
2021/09/23 10:45:56;;;;;;;14.80;11.90;;;18.70;1.00;;;;;;5055039;28;20484;-75
2021/09/23 10:48:24;;;;;;;18.93;12.33;;;18.70;1.00;;;;;;5054817;28;20455;-73
2021/09/23 10:50:50;;;;;;;13.43;11.20;;;18.70;1.00;;;;;;5054460;28;20465;-75
2021/09/23 10:53:18;;;;;;;15.17;10.23;;;18.60;1.00;;;;;;5054378;28;20894;-74
2021/09/23 10:55:47;;;;;;;18.73;11.40;;;18.70;1.00;;;;;;5053798;28;20464;-74
2021/09/23 10:58:19;;;;;;;11.80;10.50;;;18.70;1.00;;;;;;5054251;28;20712;-75
2021/09/23 11:00:46;;;;;;;14.00;10.23;;;18.70;1.00;;;;;;5054295;28;20454;-73
2021/09/23 11:03:13;;;;;;;10.73;9.30;;;18.70;1.00;;;;;;5054647;28;20471;-73
2021/09/23 11:05:42;;;;;;;17.07;10.20;;;18.80;1.00;;;;;;5054242;28;20482;-73
2021/09/23 11:08:17;;;;;;;12.53;9.73;;;19.00;1.00;;;;;;5054312;28;20459;-74
2021/09/23 11:10:45;;;;;;;12.83;9.23;;;19.10;1.00;;;;;;5054072;28;20439;-73
2021/09/23 11:13:16;;;;;;;14.07;10.40;;;19.10;1.00;;;;;;5054378;28;20487;-73
2021/09/23 11:15:44;;;;;;;12.93;9.37;;;19.20;1.00;;;;;;5053835;28;20556;-75
2021/09/23 11:18:13;;;;;;;19.73;9.17;;;19.30;99.90;;;;;;5054531;28;20469;-74
2021/09/23 11:20:44;;;;;;;13.80;9.67;;;19.30;99.90;;;;;;5054120;28;20462;-74
2021/09/23 11:23:12;;;;;;;14.77;8.63;;;19.30;99.90;;;;;;5054684;28;20830;-73
2021/09/23 11:25:46;;;;;;;14.13;8.33;;;19.30;99.90;;;;;;5053688;28;20578;-74
2021/09/23 11:28:15;;;;;;;12.43;7.73;;;19.40;99.90;;;;;;5053647;28;20447;-75
2021/09/23 11:30:42;;;;;;;9.53;7.00;;;19.60;99.90;;;;;;5053948;28;20464;-75
2021/09/23 11:33:11;;;;;;;10.87;7.00;;;19.70;99.90;;;;;;5053771;28;20456;-74
2021/09/23 11:35:40;;;;;;;11.73;7.80;;;19.70;99.90;;;;;;5053874;28;20566;-74
2021/09/23 11:38:08;;;;;;;10.30;7.80;;;19.70;99.90;;;;;;5054302;28;20499;-74
2021/09/23 11:40:37;;;;;;;9.70;6.30;;;19.80;99.90;;;;;;5054090;28;20553;-75
2021/09/23 11:43:06;;;;;;;9.00;7.00;;;19.70;99.90;;;;;;5054096;28;20810;-76
2021/09/23 11:45:36;;;;;;;13.80;6.67;;;19.60;99.90;;;;;;5054385;28;20578;-75
2021/09/23 11:48:08;;;;;;;7.07;6.10;;;19.50;99.90;;;;;;5057646;28;20462;-74
2021/09/23 11:50:37;;;;;;;10.10;7.33;;;19.50;99.90;;;;;;5057833;28;20454;-73
2021/09/23 11:53:06;;;;;;;8.47;6.30;;;19.40;99.90;;;;;;5062565;28;20762;-74
2021/09/23 11:55:35;;;;;;;9.67;6.73;;;19.50;99.90;;;;;;5058955;28;20457;-77
2021/09/23 11:58:06;;;;;;;7.20;5.90;;;19.50;99.90;;;;;;5062130;28;20528;-74
2021/09/23 12:00:37;;;;;;;7.37;5.70;;;19.50;99.90;;;;;;5063032;28;20536;-75
2021/09/23 12:03:12;;;;;;;15.10;4.57;;;19.60;99.90;;;;;;5062473;28;20458;-75
2021/09/23 12:05:40;;;;;;;19.87;5.00;;;19.50;99.90;;;;;;5063152;28;20465;-74
2021/09/23 12:08:10;;;;;;;14.00;4.47;;;19.50;99.90;;;;;;5062916;28;20492;-78
2021/09/23 12:10:45;;;;;;;5.50;4.40;;;19.60;99.90;;;;;;5062247;28;20543;-74
2021/09/23 12:13:13;;;;;;;6.40;3.80;;;19.60;99.90;;;;;;5063637;28;20470;-75
2021/09/23 12:15:53;;;;;;;4.80;3.70;;;19.70;99.90;;;;;;5061283;28;20481;-74
2021/09/23 12:18:21;;;;;;;4.27;3.87;;;19.80;99.90;;;;;;5058781;28;20443;-75
2021/09/23 12:20:50;;;;;;;4.40;3.57;;;19.80;99.90;;;;;;5057127;28;20469;-73
2021/09/23 12:23:22;;;;;;;5.13;3.40;;;19.80;99.90;;;;;;5057283;28;20454;-74
2021/09/23 12:26:11;;;;;;;3.53;3.13;;;19.80;99.90;;;;;;5056396;28;20571;-74
2021/09/23 12:28:46;;;;;;;3.90;2.80;;;19.90;99.90;;;;;;5056720;28;20496;-74
2021/09/23 12:31:18;;;;;;;6.03;3.03;;;19.80;99.90;;;;;;5057336;28;20453;-75
2021/09/23 12:33:56;;;;;;;3.10;2.37;;;19.70;99.90;;;;;;5056644;28;20447;-74